sensor_id;sensor_type;location;lat;lon;timestamp;pressure;altitude;pressure_sealevel;temperature;humidity
19890;BME280;10107;51.198;6.824;2023-03-05T00:02:56;-21423.63;;;3.91;100.00
19890;BME280;10107;51.198;6.824;2023-03-05T00:06:57;-21423.75;;;3.92;100.00
19890;BME280;10107;51.198;6.824;2023-03-05T00:11:01;-21423.47;;;3.91;100.00
19890;BME280;10107;51.198;6.824;2023-03-05T00:15:03;-21423.34;;;3.90;100.00
19890;BME280;10107;51.198;6.824;2023-03-05T00:19:06;-21422.69;;;3.88;100.00
19890;BME280;10107;51.198;6.824;2023-03-05T00:23:07;-21422.41;;;3.87;100.00
19890;BME280;10107;51.198;6.824;2023-03-05T00:27:10;-21422.16;;;3.86;100.00
19890;BME280;10107;51.198;6.824;2023-03-05T00:31:12;-21420.94;;;3.81;100.00
19890;BME280;10107;51.198;6.824;2023-03-05T00:35:13;-21420.00;;;3.77;100.00
19890;BME280;10107;51.198;6.824;2023-03-05T00:39:15;-21420.53;;;3.80;100.00
19890;BME280;10107;51.198;6.824;2023-03-05T00:43:18;-21420.81;;;3.81;100.00
19890;BME280;10107;51.198;6.824;2023-03-05T00:47:20;-21420.00;;;3.77;100.00
19890;BME280;10107;51.198;6.824;2023-03-05T00:51:22;-21420.00;;;3.77;100.00
19890;BME280;10107;51.198;6.824;2023-03-05T00:55:23;-21420.00;;;3.77;100.00
19890;BME280;10107;51.198;6.824;2023-03-05T00:59:26;-21420.41;;;3.79;100.00
19890;BME280;10107;51.198;6.824;2023-03-05T01:03:28;-21420.13;;;3.78;100.00
19890;BME280;10107;51.198;6.824;2023-03-05T01:07:30;-21420.69;;;3.80;100.00
19890;BME280;10107;51.198;6.824;2023-03-05T01:11:31;-21420.28;;;3.79;100.00
19890;BME280;10107;51.198;6.824;2023-03-05T01:15:34;-21420.00;;;3.77;100.00
19890;BME280;10107;51.198;6.824;2023-03-05T01:19:36;-21420.13;;;3.78;100.00
19890;BME280;10107;51.198;6.824;2023-03-05T01:23:37;-21419.59;;;3.76;100.00
19890;BME280;10107;51.198;6.824;2023-03-05T01:27:39;-21418.81;;;3.73;100.00
19890;BME280;10107;51.198;6.824;2023-03-05T01:31:42;-21418.41;;;3.71;100.00
19890;BME280;10107;51.198;6.824;2023-03-05T01:35:44;-21417.31;;;3.67;100.00
19890;BME280;10107;51.198;6.824;2023-03-05T01:39:46;-21416.53;;;3.64;100.00
19890;BME280;10107;51.198;6.824;2023-03-05T01:43:48;-21416.13;;;3.63;100.00
19890;BME280;10107;51.198;6.824;2023-03-05T01:47:53;-21415.84;;;3.62;100.00
19890;BME280;10107;51.198;6.824;2023-03-05T01:51:59;-21415.47;;;3.60;100.00
19890;BME280;10107;51.198;6.824;2023-03-05T01:56:02;-21415.47;;;3.60;100.00
19890;BME280;10107;51.198;6.824;2023-03-05T02:00:05;-21415.47;;;3.60;100.00
19890;BME280;10107;51.198;6.824;2023-03-05T02:04:15;-21414.78;;;3.57;100.00
19890;BME280;10107;51.198;6.824;2023-03-05T02:08:20;-21414.38;;;3.56;100.00
19890;BME280;10107;51.198;6.824;2023-03-05T02:12:22;-21412.91;;;3.50;100.00
19890;BME280;10107;51.198;6.824;2023-03-05T02:16:23;-21412.38;;;3.48;100.00
19890;BME280;10107;51.198;6.824;2023-03-05T02:20:28;-21412.63;;;3.49;100.00
19890;BME280;10107;51.198;6.824;2023-03-05T02:24:33;-21412.78;;;3.50;100.00
19890;BME280;10107;51.198;6.824;2023-03-05T02:28:37;-21412.63;;;3.49;100.00
19890;BME280;10107;51.198;6.824;2023-03-05T02:32:41;-21412.50;;;3.49;100.00
19890;BME280;10107;51.198;6.824;2023-03-05T02:36:42;-21413.03;;;3.51;100.00
19890;BME280;10107;51.198;6.824;2023-03-05T02:40:46;-21412.09;;;3.47;100.00
19890;BME280;10107;51.198;6.824;2023-03-05T02:44:50;-21411.44;;;3.45;100.00
19890;BME280;10107;51.198;6.824;2023-03-05T02:48:51;-21410.91;;;3.43;100.00
19890;BME280;10107;51.198;6.824;2023-03-05T02:52:53;-21409.69;;;3.38;100.00
19890;BME280;10107;51.198;6.824;2023-03-05T02:56:57;-21408.63;;;3.34;100.00
19890;BME280;10107;51.198;6.824;2023-03-05T03:00:58;-21408.22;;;3.32;100.00
19890;BME280;10107;51.198;6.824;2023-03-05T03:05:00;-21407.97;;;3.31;100.00
19890;BME280;10107;51.198;6.824;2023-03-05T03:09:02;-21408.09;;;3.32;100.00
19890;BME280;10107;51.198;6.824;2023-03-05T03:13:05;-21408.22;;;3.32;100.00
19890;BME280;10107;51.198;6.824;2023-03-05T03:17:06;-21408.75;;;3.34;100.00
19890;BME280;10107;51.198;6.824;2023-03-05T03:21:14;-21407.97;;;3.31;100.00
19890;BME280;10107;51.198;6.824;2023-03-05T03:25:18;-21407.81;;;3.31;100.00
19890;BME280;10107;51.198;6.824;2023-03-05T03:29:21;-21407.03;;;3.28;100.00
19890;BME280;10107;51.198;6.824;2023-03-05T03:33:23;-21406.75;;;3.27;100.00
19890;BME280;10107;51.198;6.824;2023-03-05T03:37:24;-21406.63;;;3.26;100.00
19890;BME280;10107;51.198;6.824;2023-03-05T03:41:26;-21406.22;;;3.25;100.00
19890;BME280;10107;51.198;6.824;2023-03-05T03:45:30;-21405.41;;;3.22;100.00
19890;BME280;10107;51.198;6.824;2023-03-05T03:49:31;-21404.22;;;3.17;100.00
19890;BME280;10107;51.198;6.824;2023-03-05T03:53:33;-21403.28;;;3.13;100.00
19890;BME280;10107;51.198;6.824;2023-03-05T03:57:35;-21402.47;;;3.10;100.00
19890;BME280;10107;51.198;6.824;2023-03-05T04:01:38;-21402.19;;;3.09;100.00
19890;BME280;10107;51.198;6.824;2023-03-05T04:05:39;-21401.94;;;3.08;100.00
19890;BME280;10107;51.198;6.824;2023-03-05T04:09:41;-21402.06;;;3.09;100.00
19890;BME280;10107;51.198;6.824;2023-03-05T04:13:43;-21402.06;;;3.09;100.00
19890;BME280;10107;51.198;6.824;2023-03-05T04:17:46;-21401.78;;;3.08;100.00
19890;BME280;10107;51.198;6.824;2023-03-05T04:21:47;-21401.66;;;3.07;100.00
19890;BME280;10107;51.198;6.824;2023-03-05T04:25:49;-21401.53;;;3.07;100.00
19890;BME280;10107;51.198;6.824;2023-03-05T04:29:50;-21401.00;;;3.05;100.00
19890;BME280;10107;51.198;6.824;2023-03-05T04:33:53;-21401.41;;;3.06;100.00
19890;BME280;10107;51.198;6.824;2023-03-05T04:37:54;-21400.59;;;3.03;100.00
19890;BME280;10107;51.198;6.824;2023-03-05T04:41:56;-21400.44;;;3.03;100.00
19890;BME280;10107;51.198;6.824;2023-03-05T04:45:57;-21400.31;;;3.02;100.00
19890;BME280;10107;51.198;6.824;2023-03-05T04:50:00;-21400.59;;;3.03;100.00
19890;BME280;10107;51.198;6.824;2023-03-05T04:54:02;-21400.31;;;3.02;100.00
19890;BME280;10107;51.198;6.824;2023-03-05T04:58:04;-21400.19;;;3.02;100.00
19890;BME280;10107;51.198;6.824;2023-03-05T05:02:06;-21400.84;;;3.04;100.00
19890;BME280;10107;51.198;6.824;2023-03-05T05:06:09;-21400.59;;;3.03;100.00
19890;BME280;10107;51.198;6.824;2023-03-05T05:10:10;-21400.06;;;3.01;100.00
19890;BME280;10107;51.198;6.824;2023-03-05T05:14:12;-21399.53;;;2.99;100.00
19890;BME280;10107;51.198;6.824;2023-03-05T05:18:14;-21399.91;;;3.01;100.00
19890;BME280;10107;51.198;6.824;2023-03-05T05:22:16;-21399.91;;;3.01;100.00
19890;BME280;10107;51.198;6.824;2023-03-05T05:26:18;-21399.66;;;3.00;100.00
19890;BME280;10107;51.198;6.824;2023-03-05T05:30:19;-21399.38;;;2.98;100.00
19890;BME280;10107;51.198;6.824;2023-03-05T05:34:21;-21399.25;;;2.98;100.00
19890;BME280;10107;51.198;6.824;2023-03-05T05:38:25;-21398.84;;;2.96;100.00
19890;BME280;10107;51.198;6.824;2023-03-05T05:42:27;-21399.13;;;2.97;100.00
19890;BME280;10107;51.198;6.824;2023-03-05T05:46:28;-21398.44;;;2.95;100.00
19890;BME280;10107;51.198;6.824;2023-03-05T05:50:30;-21398.59;;;2.95;100.00
19890;BME280;10107;51.198;6.824;2023-03-05T05:54:33;-21398.31;;;2.94;100.00
19890;BME280;10107;51.198;6.824;2023-03-05T05:58:34;-21397.66;;;2.92;100.00
19890;BME280;10107;51.198;6.824;2023-03-05T06:02:36;-21397.25;;;2.90;100.00
19890;BME280;10107;51.198;6.824;2023-03-05T06:06:38;-21396.97;;;2.89;100.00
19890;BME280;10107;51.198;6.824;2023-03-05T06:10:41;-21396.44;;;2.87;100.00
19890;BME280;10107;51.198;6.824;2023-03-05T06:14:42;-21396.31;;;2.87;100.00
19890;BME280;10107;51.198;6.824;2023-03-05T06:18:44;-21396.56;;;2.88;100.00
19890;BME280;10107;51.198;6.824;2023-03-05T06:22:45;-21397.09;;;2.90;100.00
19890;BME280;10107;51.198;6.824;2023-03-05T06:26:48;-21398.59;;;2.95;100.00
19890;BME280;10107;51.198;6.824;2023-03-05T06:30:50;-21399.38;;;2.98;100.00
19890;BME280;10107;51.198;6.824;2023-03-05T06:34:51;-21400.59;;;3.03;100.00
19890;BME280;10107;51.198;6.824;2023-03-05T06:38:53;-21401.66;;;3.07;100.00
19890;BME280;10107;51.198;6.824;2023-03-05T06:42:56;-21402.47;;;3.10;100.00
19890;BME280;10107;51.198;6.824;2023-03-05T06:46:57;-21403.66;;;3.15;100.00
19890;BME280;10107;51.198;6.824;2023-03-05T06:50:59;-21406.22;;;3.25;100.00
19890;BME280;10107;51.198;6.824;2023-03-05T06:55:01;-21408.63;;;3.34;100.00
19890;BME280;10107;51.198;6.824;2023-03-05T06:59:04;-21410.50;;;3.41;100.00
19890;BME280;10107;51.198;6.824;2023-03-05T07:03:05;-21412.38;;;3.48;100.00
19890;BME280;10107;51.198;6.824;2023-03-05T07:07:07;-21413.97;;;3.54;100.00
19890;BME280;10107;51.198;6.824;2023-03-05T07:11:08;-21416.00;;;3.62;100.00
19890;BME280;10107;51.198;6.824;2023-03-05T07:15:12;-21418.00;;;3.70;100.00
19890;BME280;10107;51.198;6.824;2023-03-05T07:19:13;-21419.59;;;3.76;100.00
19890;BME280;10107;51.198;6.824;2023-03-05T07:23:14;-21419.47;;;3.75;100.00
19890;BME280;10107;51.198;6.824;2023-03-05T07:27:16;-21419.88;;;3.77;100.00
19890;BME280;10107;51.198;6.824;2023-03-05T07:31:19;-21420.53;;;3.80;100.00
19890;BME280;10107;51.198;6.824;2023-03-05T07:35:21;-21420.69;;;3.80;100.00
19890;BME280;10107;51.198;6.824;2023-03-05T07:39:23;-21421.34;;;3.83;100.00
19890;BME280;10107;51.198;6.824;2023-03-05T07:43:25;-21421.63;;;3.84;100.00
19890;BME280;10107;51.198;6.824;2023-03-05T07:47:27;-21420.53;;;3.80;100.00
19890;BME280;10107;51.198;6.824;2023-03-05T07:51:29;-21422.16;;;3.86;100.00
19890;BME280;10107;51.198;6.824;2023-03-05T07:55:31;-21425.09;;;3.97;100.00
19890;BME280;10107;51.198;6.824;2023-03-05T07:59:33;-21429.09;;;4.12;100.00
19890;BME280;10107;51.198;6.824;2023-03-05T08:03:35;-21433.13;;;4.28;100.00
19890;BME280;10107;51.198;6.824;2023-03-05T08:07:37;-21433.38;;;4.29;100.00
19890;BME280;10107;51.198;6.824;2023-03-05T08:11:38;-21434.19;;;4.32;100.00
19890;BME280;10107;51.198;6.824;2023-03-05T08:15:40;-21432.44;;;4.25;100.00
19890;BME280;10107;51.198;6.824;2023-03-05T08:19:43;-21432.03;;;4.24;100.00
19890;BME280;10107;51.198;6.824;2023-03-05T08:23:44;-21433.38;;;4.29;100.00
19890;BME280;10107;51.198;6.824;2023-03-05T08:27:46;-21435.66;;;4.38;100.00
19890;BME280;10107;51.198;6.824;2023-03-05T08:31:47;-21434.84;;;4.34;100.00
19890;BME280;10107;51.198;6.824;2023-03-05T08:35:51;-21436.44;;;4.41;100.00
19890;BME280;10107;51.198;6.824;2023-03-05T08:39:53;-21439.78;;;4.53;100.00
19890;BME280;10107;51.198;6.824;2023-03-05T08:43:55;-21445.13;;;4.74;100.00
19890;BME280;10107;51.198;6.824;2023-03-05T08:47:56;-21450.88;;;4.96;100.00
19890;BME280;10107;51.198;6.824;2023-03-05T08:51:59;-21454.75;;;5.11;100.00
19890;BME280;10107;51.198;6.824;2023-03-05T08:56:01;-21459.03;;;5.27;100.00
19890;BME280;10107;51.198;6.824;2023-03-05T09:00:03;-21460.09;;;5.31;100.00
19890;BME280;10107;51.198;6.824;2023-03-05T09:04:06;-21457.84;;;5.23;100.00
19890;BME280;10107;51.198;6.824;2023-03-05T09:08:09;-21458.78;;;5.26;100.00
19890;BME280;10107;51.198;6.824;2023-03-05T09:12:11;-21461.72;;;5.38;100.00
19890;BME280;10107;51.198;6.824;2023-03-05T09:16:15;-21461.84;;;5.38;100.00
19890;BME280;10107;51.198;6.824;2023-03-05T09:20:17;-21461.19;;;5.35;100.00
19890;BME280;10107;51.198;6.824;2023-03-05T09:24:20;-21458.22;;;5.24;100.00
19890;BME280;10107;51.198;6.824;2023-03-05T09:28:21;-21455.84;;;5.15;100.00
19890;BME280;10107;51.198;6.824;2023-03-05T09:32:22;-21458.38;;;5.25;100.00
19890;BME280;10107;51.198;6.824;2023-03-05T09:36:25;-21456.50;;;5.18;100.00
19890;BME280;10107;51.198;6.824;2023-03-05T09:40:28;-21455.28;;;5.13;100.00
19890;BME280;10107;51.198;6.824;2023-03-05T09:44:34;-21458.38;;;5.25;100.00
19890;BME280;10107;51.198;6.824;2023-03-05T09:48:41;-21476.38;;;5.94;100.00
19890;BME280;10107;51.198;6.824;2023-03-05T09:52:45;-21477.06;;;5.97;100.00
19890;BME280;10107;51.198;6.824;2023-03-05T09:56:52;-21473.84;;;5.84;100.00
19890;BME280;10107;51.198;6.824;2023-03-05T10:00:57;-21462.66;;;5.41;100.00
19890;BME280;10107;51.198;6.824;2023-03-05T10:05:02;-21461.03;;;5.35;100.00
19890;BME280;10107;51.198;6.824;2023-03-05T10:09:06;-21468.50;;;5.64;100.00
19890;BME280;10107;51.198;6.824;2023-03-05T10:13:12;-21480.13;;;6.08;100.00
19890;BME280;10107;51.198;6.824;2023-03-05T10:17:27;-21487.47;;;6.37;100.00
19890;BME280;10107;51.198;6.824;2023-03-05T10:21:33;-21493.72;;;6.61;100.00
19890;BME280;10107;51.198;6.824;2023-03-05T10:25:42;-21497.19;;;6.74;100.00
19890;BME280;10107;51.198;6.824;2023-03-05T10:34:15;-21501.59;;;6.91;97.55
19890;BME280;10107;51.198;6.824;2023-03-05T10:42:51;-21500.25;;;6.86;95.85
19890;BME280;10107;51.198;6.824;2023-03-05T10:46:56;-21509.56;;;7.22;93.09
19890;BME280;10107;51.198;6.824;2023-03-05T10:51:01;-21525.69;;;7.84;91.04
19890;BME280;10107;51.198;6.824;2023-03-05T10:55:11;-21550.41;;;8.79;84.73
19890;BME280;10107;51.198;6.824;2023-03-05T10:59:13;-21561.03;;;9.20;81.23
19890;BME280;10107;51.198;6.824;2023-03-05T11:03:15;-21554.13;;;8.94;79.34
19890;BME280;10107;51.198;6.824;2023-03-05T11:07:32;-21543.75;;;8.53;82.64
19890;BME280;10107;51.198;6.824;2023-03-05T11:11:34;-21540.56;;;8.41;83.21
19890;BME280;10107;51.198;6.824;2023-03-05T11:15:35;-21549.75;;;8.77;81.92
19890;BME280;10107;51.198;6.824;2023-03-05T11:19:37;-21554.13;;;8.94;80.84
19890;BME280;10107;51.198;6.824;2023-03-05T11:23:40;-21555.59;;;8.99;78.78
19890;BME280;10107;51.198;6.824;2023-03-05T11:27:43;-21554.91;;;8.97;79.75
19890;BME280;10107;51.198;6.824;2023-03-05T11:31:48;-21555.44;;;8.99;76.87
19890;BME280;10107;51.198;6.824;2023-03-05T11:35:52;-21548.69;;;8.72;79.81
19890;BME280;10107;51.198;6.824;2023-03-05T11:44:16;-21517.28;;;7.51;84.48
19890;BME280;10107;51.198;6.824;2023-03-05T11:48:23;-21500.38;;;6.86;89.45
19890;BME280;10107;51.198;6.824;2023-03-05T11:52:27;-21489.06;;;6.43;91.56
19890;BME280;10107;51.198;6.824;2023-03-05T11:56:30;-21491.72;;;6.53;92.39
19890;BME280;10107;51.198;6.824;2023-03-05T12:00:36;-21498.00;;;6.77;91.46
19890;BME280;10107;51.198;6.824;2023-03-05T12:04:37;-21512.50;;;7.33;90.01
19890;BME280;10107;51.198;6.824;2023-03-05T12:08:40;-21523.69;;;7.76;88.18
19890;BME280;10107;51.198;6.824;2023-03-05T12:12:43;-21524.47;;;7.79;86.25
19890;BME280;10107;51.198;6.824;2023-03-05T12:16:50;-21522.88;;;7.73;88.12
19890;BME280;10107;51.198;6.824;2023-03-05T12:20:56;-21526.06;;;7.85;87.27
19890;BME280;10107;51.198;6.824;2023-03-05T12:25:15;-21524.88;;;7.81;86.16
19890;BME280;10107;51.198;6.824;2023-03-05T12:33:38;-21529.41;;;7.98;84.15
19890;BME280;10107;51.198;6.824;2023-03-05T12:37:57;-21527.81;;;7.92;84.24
19890;BME280;10107;51.198;6.824;2023-03-05T12:41:58;-21521.16;;;7.66;86.97
19890;BME280;10107;51.198;6.824;2023-03-05T12:50:48;-21512.63;;;7.33;87.16
19890;BME280;10107;51.198;6.824;2023-03-05T12:59:11;-21512.25;;;7.32;87.26
19890;BME280;10107;51.198;6.824;2023-03-05T13:03:16;-21515.84;;;7.46;86.94
19890;BME280;10107;51.198;6.824;2023-03-05T13:07:20;-21515.16;;;7.43;85.02
19890;BME280;10107;51.198;6.824;2023-03-05T13:11:21;-21515.84;;;7.46;84.23
19890;BME280;10107;51.198;6.824;2023-03-05T13:15:23;-21517.97;;;7.54;83.27
19890;BME280;10107;51.198;6.824;2023-03-05T13:19:25;-21515.69;;;7.45;81.83
19890;BME280;10107;51.198;6.824;2023-03-05T13:23:28;-21515.44;;;7.44;80.89
19890;BME280;10107;51.198;6.824;2023-03-05T13:27:30;-21511.03;;;7.27;80.17
19890;BME280;10107;51.198;6.824;2023-03-05T13:31:32;-21505.72;;;7.07;81.24
19890;BME280;10107;51.198;6.824;2023-03-05T13:35:35;-21502.78;;;6.96;82.84
19890;BME280;10107;51.198;6.824;2023-03-05T13:39:47;-21498.66;;;6.80;81.61
19890;BME280;10107;51.198;6.824;2023-03-05T13:43:50;-21493.19;;;6.59;80.33
19890;BME280;10107;51.198;6.824;2023-03-05T13:47:54;-21486.94;;;6.34;79.93
19890;BME280;10107;51.198;6.824;2023-03-05T13:51:58;-21485.84;;;6.30;80.99
19890;BME280;10107;51.198;6.824;2023-03-05T13:56:05;-21486.53;;;6.33;81.86
19890;BME280;10107;51.198;6.824;2023-03-05T14:00:23;-21488.78;;;6.42;82.64
19890;BME280;10107;51.198;6.824;2023-03-05T14:04:26;-21496.25;;;6.70;83.91
19890;BME280;10107;51.198;6.824;2023-03-05T14:08:28;-21509.56;;;7.22;82.66
19890;BME280;10107;51.198;6.824;2023-03-05T14:12:34;-21516.63;;;7.49;81.93
19890;BME280;10107;51.198;6.824;2023-03-05T14:16:36;-21512.38;;;7.32;81.41
19890;BME280;10107;51.198;6.824;2023-03-05T14:20:38;-21511.31;;;7.28;83.02
19890;BME280;10107;51.198;6.824;2023-03-05T14:24:40;-21509.44;;;7.21;81.71
19890;BME280;10107;51.198;6.824;2023-03-05T14:28:53;-21502.78;;;6.96;83.46
19890;BME280;10107;51.198;6.824;2023-03-05T14:32:56;-21497.72;;;6.76;84.55
19890;BME280;10107;51.198;6.824;2023-03-05T14:36:59;-21496.25;;;6.70;84.74
19890;BME280;10107;51.198;6.824;2023-03-05T14:41:17;-21492.41;;;6.56;84.99
19890;BME280;10107;51.198;6.824;2023-03-05T14:45:20;-21484.66;;;6.26;86.20
19890;BME280;10107;51.198;6.824;2023-03-05T14:49:22;-21480.25;;;6.09;87.34
19890;BME280;10107;51.198;6.824;2023-03-05T14:53:24;-21476.78;;;5.95;87.84
19890;BME280;10107;51.198;6.824;2023-03-05T14:57:27;-21471.97;;;5.77;89.16
19890;BME280;10107;51.198;6.824;2023-03-05T15:01:31;-21467.31;;;5.59;93.64
19890;BME280;10107;51.198;6.824;2023-03-05T15:05:32;-21464.38;;;5.48;97.13
19890;BME280;10107;51.198;6.824;2023-03-05T15:09:34;-21463.03;;;5.43;98.91
19890;BME280;10107;51.198;6.824;2023-03-05T15:13:36;-21462.50;;;5.41;100.00
19890;BME280;10107;51.198;6.824;2023-03-05T15:17:40;-21462.50;;;5.41;99.90
19890;BME280;10107;51.198;6.824;2023-03-05T15:21:42;-21461.56;;;5.37;99.72
19890;BME280;10107;51.198;6.824;2023-03-05T15:25:44;-21460.63;;;5.33;98.61
19890;BME280;10107;51.198;6.824;2023-03-05T15:29:45;-21459.97;;;5.31;98.11
19890;BME280;10107;51.198;6.824;2023-03-05T15:33:48;-21459.31;;;5.28;98.15
19890;BME280;10107;51.198;6.824;2023-03-05T15:37:50;-21457.97;;;5.23;97.99
19890;BME280;10107;51.198;6.824;2023-03-05T15:41:51;-21458.38;;;5.25;98.90
19890;BME280;10107;51.198;6.824;2023-03-05T15:45:53;-21458.91;;;5.27;99.20
19890;BME280;10107;51.198;6.824;2023-03-05T15:49:56;-21459.56;;;5.29;99.67
19890;BME280;10107;51.198;6.824;2023-03-05T15:53:57;-21459.56;;;5.29;99.25
19890;BME280;10107;51.198;6.824;2023-03-05T15:57:59;-21458.91;;;5.27;99.63
19890;BME280;10107;51.198;6.824;2023-03-05T16:02:00;-21458.38;;;5.25;100.00
19890;BME280;10107;51.198;6.824;2023-03-05T16:06:04;-21457.97;;;5.23;99.63
19890;BME280;10107;51.198;6.824;2023-03-05T16:10:09;-21457.03;;;5.20;99.79
19890;BME280;10107;51.198;6.824;2023-03-05T16:14:11;-21455.84;;;5.15;99.92
19890;BME280;10107;51.198;6.824;2023-03-05T16:18:12;-21455.16;;;5.12;100.00
19890;BME280;10107;51.198;6.824;2023-03-05T16:22:18;-21454.63;;;5.10;100.00
19890;BME280;10107;51.198;6.824;2023-03-05T16:26:19;-21453.97;;;5.08;100.00
19890;BME280;10107;51.198;6.824;2023-03-05T16:30:21;-21451.97;;;5.00;100.00
19890;BME280;10107;51.198;6.824;2023-03-05T16:34:23;-21450.63;;;4.95;100.00
19890;BME280;10107;51.198;6.824;2023-03-05T16:38:25;-21449.97;;;4.92;100.00
19890;BME280;10107;51.198;6.824;2023-03-05T16:42:27;-21449.56;;;4.91;100.00
19890;BME280;10107;51.198;6.824;2023-03-05T16:46:29;-21447.94;;;4.85;100.00
19890;BME280;10107;51.198;6.824;2023-03-05T16:50:30;-21446.75;;;4.80;100.00
19890;BME280;10107;51.198;6.824;2023-03-05T16:54:33;-21445.13;;;4.74;100.00
19890;BME280;10107;51.198;6.824;2023-03-05T16:58:36;-21443.81;;;4.69;100.00
19890;BME280;10107;51.198;6.824;2023-03-05T17:02:39;-21442.47;;;4.64;100.00
19890;BME280;10107;51.198;6.824;2023-03-05T17:06:41;-21440.72;;;4.57;100.00
19890;BME280;10107;51.198;6.824;2023-03-05T17:10:46;-21439.25;;;4.51;100.00
19890;BME280;10107;51.198;6.824;2023-03-05T17:14:47;-21439.00;;;4.50;100.00
19890;BME280;10107;51.198;6.824;2023-03-05T17:18:49;-21437.66;;;4.45;100.00
19890;BME280;10107;51.198;6.824;2023-03-05T17:22:50;-21436.72;;;4.42;100.00
19890;BME280;10107;51.198;6.824;2023-03-05T17:26:53;-21436.19;;;4.40;100.00
19890;BME280;10107;51.198;6.824;2023-03-05T17:30:55;-21435.66;;;4.38;100.00
19890;BME280;10107;51.198;6.824;2023-03-05T17:35:00;-21435.00;;;4.35;100.00
19890;BME280;10107;51.198;6.824;2023-03-05T17:39:01;-21434.84;;;4.34;100.00
19890;BME280;10107;51.198;6.824;2023-03-05T17:43:05;-21434.44;;;4.33;100.00
19890;BME280;10107;51.198;6.824;2023-03-05T17:47:06;-21434.44;;;4.33;100.00
19890;BME280;10107;51.198;6.824;2023-03-05T17:51:08;-21433.78;;;4.30;100.00
19890;BME280;10107;51.198;6.824;2023-03-05T17:55:11;-21433.25;;;4.28;100.00
19890;BME280;10107;51.198;6.824;2023-03-05T17:59:16;-21432.97;;;4.27;100.00
19890;BME280;10107;51.198;6.824;2023-03-05T18:03:17;-21432.31;;;4.25;100.00
19890;BME280;10107;51.198;6.824;2023-03-05T18:07:19;-21431.25;;;4.21;100.00
19890;BME280;10107;51.198;6.824;2023-03-05T18:11:20;-21430.03;;;4.16;100.00
19890;BME280;10107;51.198;6.824;2023-03-05T18:15:24;-21429.22;;;4.13;100.00
19890;BME280;10107;51.198;6.824;2023-03-05T18:19:26;-21429.78;;;4.15;100.00
19890;BME280;10107;51.198;6.824;2023-03-05T18:23:27;-21428.84;;;4.11;100.00
19890;BME280;10107;51.198;6.824;2023-03-05T18:27:29;-21427.75;;;4.07;100.00
19890;BME280;10107;51.198;6.824;2023-03-05T18:31:31;-21426.44;;;4.02;100.00
19890;BME280;10107;51.198;6.824;2023-03-05T18:35:33;-21425.50;;;3.99;100.00
19890;BME280;10107;51.198;6.824;2023-03-05T18:39:35;-21425.22;;;3.97;100.00
19890;BME280;10107;51.198;6.824;2023-03-05T18:43:36;-21424.69;;;3.95;100.00
19890;BME280;10107;51.198;6.824;2023-03-05T18:47:41;-21423.75;;;3.92;100.00
19890;BME280;10107;51.198;6.824;2023-03-05T18:51:42;-21423.22;;;3.90;100.00
19890;BME280;10107;51.198;6.824;2023-03-05T18:55:44;-21422.28;;;3.86;100.00
19890;BME280;10107;51.198;6.824;2023-03-05T18:59:46;-21422.16;;;3.86;100.00
19890;BME280;10107;51.198;6.824;2023-03-05T19:03:49;-21421.63;;;3.84;100.00
19890;BME280;10107;51.198;6.824;2023-03-05T19:07:50;-21421.06;;;3.82;100.00
19890;BME280;10107;51.198;6.824;2023-03-05T19:11:52;-21420.13;;;3.78;100.00
19890;BME280;10107;51.198;6.824;2023-03-05T19:15:53;-21420.41;;;3.79;100.00
19890;BME280;10107;51.198;6.824;2023-03-05T19:19:56;-21420.00;;;3.77;100.00
19890;BME280;10107;51.198;6.824;2023-03-05T19:23:59;-21419.59;;;3.76;100.00
19890;BME280;10107;51.198;6.824;2023-03-05T19:28:00;-21418.94;;;3.73;100.00
19890;BME280;10107;51.198;6.824;2023-03-05T19:32:02;-21418.66;;;3.72;100.00
19890;BME280;10107;51.198;6.824;2023-03-05T19:36:07;-21417.84;;;3.69;100.00
19890;BME280;10107;51.198;6.824;2023-03-05T19:40:10;-21417.72;;;3.69;100.00
19890;BME280;10107;51.198;6.824;2023-03-05T19:44:12;-21417.06;;;3.66;100.00
19890;BME280;10107;51.198;6.824;2023-03-05T19:48:13;-21417.06;;;3.66;100.00
19890;BME280;10107;51.198;6.824;2023-03-05T19:52:17;-21416.25;;;3.63;100.00
19890;BME280;10107;51.198;6.824;2023-03-05T19:56:18;-21415.72;;;3.61;100.00
19890;BME280;10107;51.198;6.824;2023-03-05T20:00:20;-21415.19;;;3.59;100.00
19890;BME280;10107;51.198;6.824;2023-03-05T20:04:22;-21415.19;;;3.59;100.00
19890;BME280;10107;51.198;6.824;2023-03-05T20:08:25;-21414.78;;;3.57;100.00
19890;BME280;10107;51.198;6.824;2023-03-05T20:12:27;-21414.66;;;3.57;100.00
19890;BME280;10107;51.198;6.824;2023-03-05T20:16:30;-21414.66;;;3.57;100.00
19890;BME280;10107;51.198;6.824;2023-03-05T20:20:34;-21414.53;;;3.56;100.00
19890;BME280;10107;51.198;6.824;2023-03-05T20:24:37;-21414.13;;;3.55;100.00
19890;BME280;10107;51.198;6.824;2023-03-05T20:28:39;-21413.19;;;3.51;100.00
19890;BME280;10107;51.198;6.824;2023-03-05T20:32:40;-21413.84;;;3.54;100.00
19890;BME280;10107;51.198;6.824;2023-03-05T20:36:42;-21413.84;;;3.54;100.00
19890;BME280;10107;51.198;6.824;2023-03-05T20:40:45;-21414.53;;;3.56;100.00
19890;BME280;10107;51.198;6.824;2023-03-05T20:44:47;-21414.66;;;3.57;100.00
19890;BME280;10107;51.198;6.824;2023-03-05T20:48:50;-21414.66;;;3.57;100.00
19890;BME280;10107;51.198;6.824;2023-03-05T20:52:52;-21414.38;;;3.56;100.00
19890;BME280;10107;51.198;6.824;2023-03-05T20:56:55;-21414.66;;;3.57;100.00
19890;BME280;10107;51.198;6.824;2023-03-05T21:00:58;-21413.72;;;3.53;100.00
19890;BME280;10107;51.198;6.824;2023-03-05T21:05:00;-21413.59;;;3.53;100.00
19890;BME280;10107;51.198;6.824;2023-03-05T21:09:01;-21412.91;;;3.50;100.00
19890;BME280;10107;51.198;6.824;2023-03-05T21:13:04;-21411.97;;;3.47;100.00
19890;BME280;10107;51.198;6.824;2023-03-05T21:17:06;-21411.16;;;3.44;100.00
19890;BME280;10107;51.198;6.824;2023-03-05T21:21:08;-21410.22;;;3.40;100.00
19890;BME280;10107;51.198;6.824;2023-03-05T21:25:09;-21409.16;;;3.36;100.00
19890;BME280;10107;51.198;6.824;2023-03-05T21:29:21;-21408.22;;;3.32;100.00
19890;BME280;10107;51.198;6.824;2023-03-05T21:33:27;-21408.22;;;3.32;100.00
19890;BME280;10107;51.198;6.824;2023-03-05T21:37:30;-21408.34;;;3.33;100.00
19890;BME280;10107;51.198;6.824;2023-03-05T21:41:32;-21408.22;;;3.32;100.00